Time;durP1;ratioP1;P1;durP2;ratioP2;P2;SDS_P1;SDS_P2;PMS_P1;PMS_P2;Temp;Humidity;BMP_temperature;BMP_pressure;BME280_temperature;BME280_humidity;BME280_pressure;Samples;Min_cycle;Max_cycle;Signal;HPM_P1;HPM_P2
2022/07/24 00:03:39;;;;;;;5.72;4.43;;;26.10;68.40;;;;;;10136597;28;20040;-57
2022/07/24 00:08:29;;;;;;;7.22;4.95;;;26.10;68.70;;;;;;10122105;28;20021;-53
2022/07/24 00:13:20;;;;;;;6.65;4.53;;;26.30;68.50;;;;;;10136215;28;20056;-54
2022/07/24 00:18:11;;;;;;;6.65;5.10;;;26.40;68.60;;;;;;10133469;28;20427;-56
2022/07/24 00:23:01;;;;;;;7.45;4.97;;;26.30;68.60;;;;;;10136076;28;20131;-54
2022/07/24 00:27:52;;;;;;;6.05;4.53;;;26.30;68.80;;;;;;10135902;28;20100;-53
2022/07/24 00:32:42;;;;;;;7.57;4.82;;;26.10;68.90;;;;;;10135076;28;20510;-52
2022/07/24 00:37:33;;;;;;;9.68;5.43;;;26.10;69.10;;;;;;10135097;28;20017;-53
2022/07/24 00:42:24;;;;;;;5.78;4.55;;;26.10;69.00;;;;;;10136132;28;20062;-54
2022/07/24 00:47:14;;;;;;;7.90;5.13;;;26.10;69.00;;;;;;10131797;28;20124;-54
2022/07/24 00:52:05;;;;;;;6.18;4.80;;;26.10;69.20;;;;;;10131678;28;20410;-55
2022/07/24 00:56:56;;;;;;;6.75;4.72;;;26.10;69.20;;;;;;10135904;28;20028;-66
2022/07/24 01:01:48;;;;;;;7.30;4.55;;;26.10;69.50;;;;;;10134966;28;20131;-57
2022/07/24 01:06:43;;;;;;;6.50;4.82;;;25.90;69.60;;;;;;10124675;28;20119;-54
2022/07/24 01:11:34;;;;;;;6.93;4.25;;;25.80;70.10;;;;;;10134574;28;20451;-55
2022/07/24 01:16:24;;;;;;;6.35;4.57;;;25.80;70.20;;;;;;10134484;28;20104;-53
2022/07/24 01:21:15;;;;;;;6.78;4.32;;;25.80;70.20;;;;;;10132551;28;20123;-53
2022/07/24 01:26:07;;;;;;;6.57;4.82;;;25.80;70.20;;;;;;10132127;28;20402;-52
2022/07/24 01:30:58;;;;;;;6.88;5.35;;;25.90;70.30;;;;;;10134599;28;20024;-63
2022/07/24 01:35:48;;;;;;;7.97;5.72;;;25.80;70.90;;;;;;10132064;28;20033;-54
2022/07/24 01:40:39;;;;;;;7.47;4.85;;;25.80;71.60;;;;;;10134844;28;20037;-54
2022/07/24 01:45:30;;;;;;;7.18;5.35;;;25.80;71.60;;;;;;10131965;28;20129;-53
2022/07/24 01:50:21;;;;;;;7.43;5.10;;;25.80;72.10;;;;;;10128551;28;20082;-55
2022/07/24 01:55:12;;;;;;;8.25;5.50;;;25.80;72.50;;;;;;10132399;28;20073;-54
2022/07/24 02:00:05;;;;;;;8.23;5.40;;;25.70;73.00;;;;;;10131792;28;20024;-56
2022/07/24 02:04:56;;;;;;;9.10;5.38;;;25.50;73.50;;;;;;10131463;28;20102;-53
2022/07/24 02:09:46;;;;;;;6.70;5.07;;;25.50;74.00;;;;;;10129332;28;20572;-53
2022/07/24 02:14:37;;;;;;;9.40;5.35;;;25.50;74.20;;;;;;10128995;28;20067;-54
2022/07/24 02:19:28;;;;;;;7.88;5.93;;;25.50;74.60;;;;;;10133662;28;20524;-53
2022/07/24 02:24:18;;;;;;;8.93;6.22;;;25.40;75.00;;;;;;10133044;28;20105;-57
2022/07/24 02:29:09;;;;;;;8.02;6.35;;;25.30;75.30;;;;;;10123654;28;20112;-55
2022/07/24 02:34:00;;;;;;;8.45;5.40;;;25.20;75.70;;;;;;10110478;28;20033;-60
2022/07/24 02:38:51;;;;;;;8.98;6.35;;;25.20;76.10;;;;;;10128855;28;20270;-57
2022/07/24 02:43:41;;;;;;;10.35;6.60;;;25.20;76.50;;;;;;10133697;28;20546;-54
2022/07/24 02:48:32;;;;;;;7.75;6.35;;;25.30;76.70;;;;;;10098176;28;1186399;-55
2022/07/24 02:53:23;;;;;;;9.43;6.75;;;25.10;77.30;;;;;;10137329;28;20039;-57
2022/07/24 02:58:13;;;;;;;7.78;6.35;;;25.10;77.80;;;;;;10138156;28;20028;-52
2022/07/24 03:03:04;;;;;;;11.07;7.28;;;25.00;78.20;;;;;;10139224;28;20036;-54
2022/07/24 03:07:55;;;;;;;10.68;6.72;;;25.00;78.60;;;;;;10135050;28;20021;-53
2022/07/24 03:12:45;;;;;;;10.15;7.35;;;24.90;79.20;;;;;;10139332;28;20295;-54
2022/07/24 03:17:36;;;;;;;8.35;6.53;;;24.90;79.80;;;;;;10139739;28;20136;-51
2022/07/24 03:22:27;;;;;;;9.70;6.90;;;24.90;80.20;;;;;;10138998;28;20086;-54
2022/07/24 03:27:18;;;;;;;10.85;7.10;;;24.70;80.70;;;;;;10137969;28;20020;-50
2022/07/24 03:32:08;;;;;;;9.38;6.82;;;24.60;81.20;;;;;;10137344;28;20025;-53
2022/07/24 03:36:59;;;;;;;9.75;7.53;;;24.70;81.60;;;;;;10138650;28;20025;-64
2022/07/24 03:41:50;;;;;;;10.90;7.13;;;24.60;81.90;;;;;;10137013;28;20041;-60
2022/07/24 03:46:40;;;;;;;11.27;6.93;;;24.50;82.60;;;;;;10139271;28;20119;-67
2022/07/24 03:51:32;;;;;;;11.18;6.70;;;24.50;82.80;;;;;;10137984;28;20029;-55
2022/07/24 03:56:22;;;;;;;9.95;7.07;;;24.40;83.20;;;;;;10133252;28;20035;-57
2022/07/24 04:01:13;;;;;;;9.75;7.30;;;24.30;83.60;;;;;;10135842;28;20044;-51
2022/07/24 04:06:05;;;;;;;12.90;7.13;;;24.20;84.20;;;;;;10131251;28;20242;-55
2022/07/24 04:10:56;;;;;;;9.82;6.97;;;24.10;85.00;;;;;;10129233;28;20021;-51
2022/07/24 04:15:47;;;;;;;7.95;6.68;;;24.00;85.70;;;;;;10137671;28;20059;-55
2022/07/24 04:20:38;;;;;;;7.07;5.70;;;23.90;86.30;;;;;;10136174;28;20012;-57
2022/07/24 04:25:28;;;;;;;7.88;6.15;;;24.00;86.70;;;;;;10137013;28;20243;-56
2022/07/24 04:30:19;;;;;;;8.77;5.32;;;23.90;87.20;;;;;;10139429;28;20047;-55
2022/07/24 04:35:10;;;;;;;8.95;5.95;;;24.00;87.80;;;;;;10136386;28;20498;-57
2022/07/24 04:40:00;;;;;;;8.75;6.43;;;24.00;87.90;;;;;;10136804;28;20028;-55
2022/07/24 04:44:51;;;;;;;8.35;5.88;;;24.10;88.50;;;;;;10135171;28;20040;-58
2022/07/24 04:49:42;;;;;;;8.23;6.32;;;24.10;89.10;;;;;;10131202;28;20225;-56
2022/07/24 04:54:32;;;;;;;9.32;6.15;;;24.00;89.70;;;;;;10135580;28;20035;-59
2022/07/24 04:59:23;;;;;;;8.80;6.85;;;24.10;90.10;;;;;;10137437;28;20032;-53
2022/07/24 05:04:14;;;;;;;7.88;5.88;;;24.10;90.20;;;;;;10134458;28;20078;-53
2022/07/24 05:09:04;;;;;;;11.55;7.30;;;23.90;90.40;;;;;;10136677;28;20050;-52
2022/07/24 05:13:55;;;;;;;10.32;6.80;;;24.00;90.50;;;;;;10125275;28;20041;-55
2022/07/24 05:18:46;;;;;;;7.22;5.78;;;24.10;90.50;;;;;;10121375;28;20100;-57
2022/07/24 05:23:36;;;;;;;9.63;6.85;;;24.10;90.60;;;;;;10124671;28;20040;-59
2022/07/24 05:28:27;;;;;;;8.43;5.95;;;24.00;90.60;;;;;;10135502;28;20028;-58
2022/07/24 05:33:18;;;;;;;8.65;6.30;;;24.10;90.70;;;;;;10125726;28;20025;-52
2022/07/24 05:38:08;;;;;;;8.45;5.93;;;24.30;90.60;;;;;;10133844;28;20481;-53
2022/07/24 05:42:59;;;;;;;7.32;5.70;;;24.40;90.40;;;;;;10133123;28;20049;-51
2022/07/24 05:47:50;;;;;;;7.47;5.65;;;24.60;90.40;;;;;;10132153;28;20055;-53
2022/07/24 05:52:41;;;;;;;7.45;5.60;;;24.60;90.20;;;;;;10132125;28;20016;-60
2022/07/24 05:57:32;;;;;;;7.95;5.53;;;24.60;90.20;;;;;;10133186;28;20395;-57
2022/07/24 06:02:23;;;;;;;7.50;5.50;;;24.70;90.10;;;;;;10131967;28;20028;-54
2022/07/24 06:07:13;;;;;;;7.25;5.95;;;24.70;90.10;;;;;;10128914;28;20039;-53
2022/07/24 06:12:05;;;;;;;7.72;5.90;;;24.90;90.00;;;;;;10132026;28;20033;-57
2022/07/24 06:16:55;;;;;;;9.18;6.63;;;25.10;89.90;;;;;;10122487;28;20037;-55
2022/07/24 06:21:46;;;;;;;7.47;6.65;;;25.10;89.90;;;;;;10130749;28;20625;-57
2022/07/24 06:26:36;;;;;;;10.38;6.70;;;25.10;90.00;;;;;;10131976;28;20114;-55
2022/07/24 06:31:27;;;;;;;10.30;6.68;;;25.20;90.20;;;;;;10133072;28;20017;-56
2022/07/24 06:36:18;;;;;;;9.05;6.70;;;25.30;90.20;;;;;;10129108;28;20028;-54
2022/07/24 06:41:08;;;;;;;13.10;7.15;;;25.50;90.10;;;;;;10135158;28;20128;-55
2022/07/24 06:45:59;;;;;;;9.77;6.53;;;25.60;90.10;;;;;;10123964;28;20058;-53
2022/07/24 06:50:50;;;;;;;10.93;7.50;;;25.70;90.10;;;;;;10130080;28;20032;-54
2022/07/24 06:55:40;;;;;;;9.27;6.10;;;25.50;90.30;;;;;;10124351;28;20104;-50
2022/07/24 07:00:31;;;;;;;10.40;6.95;;;25.80;90.10;;;;;;10131814;28;20020;-55
2022/07/24 07:05:23;;;;;;;8.65;5.95;;;25.90;90.10;;;;;;10126925;28;20440;-59
2022/07/24 07:10:14;;;;;;;12.77;7.13;;;25.80;90.10;;;;;;10130906;28;20100;-56
2022/07/24 07:15:05;;;;;;;9.90;6.50;;;26.00;89.90;;;;;;10130046;28;20032;-54
2022/07/24 07:19:56;;;;;;;9.45;6.75;;;26.10;89.70;;;;;;10129800;28;20029;-52
2022/07/24 07:24:46;;;;;;;9.70;6.28;;;26.10;89.60;;;;;;10131002;28;20040;-55
2022/07/24 07:29:37;;;;;;;7.63;6.05;;;26.00;89.50;;;;;;10138776;28;20498;-55
2022/07/24 07:34:27;;;;;;;8.40;6.78;;;26.20;89.10;;;;;;10138034;28;20562;-54
2022/07/24 07:39:18;;;;;;;10.55;6.90;;;26.30;88.70;;;;;;10128494;28;20023;-54
2022/07/24 07:44:09;;;;;;;8.90;7.22;;;26.20;88.70;;;;;;10139952;28;20035;-54
2022/07/24 07:48:59;;;;;;;10.07;6.88;;;26.20;88.60;;;;;;10138646;28;20120;-53
2022/07/24 07:53:50;;;;;;;8.10;6.13;;;26.30;88.50;;;;;;10138258;28;20529;-54
2022/07/24 07:58:41;;;;;;;8.73;6.55;;;26.30;88.00;;;;;;10138160;28;20024;-57
2022/07/24 08:03:32;;;;;;;9.73;6.60;;;26.40;87.80;;;;;;10137289;28;20041;-53
2022/07/24 08:08:22;;;;;;;8.85;7.25;;;26.50;87.40;;;;;;10132251;28;20391;-53
2022/07/24 08:13:14;;;;;;;8.13;6.32;;;26.70;87.10;;;;;;10135820;28;20036;-54
2022/07/24 08:18:05;;;;;;;9.88;6.78;;;26.80;86.80;;;;;;10136540;28;20077;-53
2022/07/24 08:22:56;;;;;;;6.65;5.50;;;27.00;86.30;;;;;;10130731;28;20119;-54
2022/07/24 08:27:47;;;;;;;7.47;5.90;;;27.20;85.80;;;;;;10136370;28;20021;-54
2022/07/24 08:32:38;;;;;;;11.10;7.88;;;27.30;85.40;;;;;;10135851;28;20375;-55
2022/07/24 08:37:28;;;;;;;8.40;5.97;;;27.40;85.10;;;;;;10132964;28;20024;-54
2022/07/24 08:42:19;;;;;;;9.85;7.05;;;27.50;84.90;;;;;;10134688;28;20047;-53
2022/07/24 08:47:10;;;;;;;9.80;6.22;;;27.70;84.20;;;;;;10136129;28;20053;-53
2022/07/24 08:52:04;;;;;;;9.35;6.05;;;27.70;84.00;;;;;;10135598;28;20029;-55
2022/07/24 08:56:55;;;;;;;9.13;5.85;;;27.90;83.20;;;;;;10131510;28;20017;-62
2022/07/24 09:01:48;;;;;;;8.38;5.43;;;27.80;83.20;;;;;;10131001;28;20106;-63
2022/07/24 09:06:57;;;;;;;7.60;5.97;;;27.80;83.00;;;;;;10127534;28;20024;-63
2022/07/24 09:11:47;;;;;;;8.20;6.18;;;27.90;82.30;;;;;;10134242;28;20505;-61
2022/07/24 09:16:38;;;;;;;7.30;5.45;;;28.00;82.00;;;;;;10128487;28;20012;-57
2022/07/24 09:21:32;;;;;;;7.43;5.60;;;28.10;81.30;;;;;;10133876;28;20093;-60
2022/07/24 09:26:23;;;;;;;9.10;7.60;;;28.30;80.60;;;;;;10133672;28;20020;-55
2022/07/24 09:31:14;;;;;;;7.68;6.13;;;28.30;80.30;;;;;;10129992;28;20020;-54
2022/07/24 09:36:12;;;;;;;6.72;5.43;;;28.30;80.30;;;;;;10133350;28;20028;-53
2022/07/24 09:41:03;;;;;;;6.90;5.80;;;28.40;78.70;;;;;;10133041;28;20525;-54
2022/07/24 09:46:06;;;;;;;7.45;5.72;;;28.50;78.40;;;;;;10132296;28;20068;-54
2022/07/24 09:51:00;;;;;;;7.40;5.25;;;28.80;77.40;;;;;;10132925;28;20039;-53
2022/07/24 09:56:08;;;;;;;10.77;6.00;;;28.80;76.80;;;;;;10134464;28;20097;-53
2022/07/24 10:01:00;;;;;;;8.98;6.65;;;28.90;76.00;;;;;;10130975;28;20066;-51
2022/07/24 10:05:55;;;;;;;11.27;6.72;;;28.80;76.00;;;;;;10128944;28;20044;-52
2022/07/24 10:10:47;;;;;;;6.32;5.53;;;28.80;75.60;;;;;;10132510;28;20013;-52
2022/07/24 10:16:05;;;;;;;19.45;5.90;;;28.90;74.90;;;;;;10120665;28;20039;-52
2022/07/24 10:21:06;;;;;;;7.95;5.55;;;29.00;74.10;;;;;;10122573;28;20138;-55
2022/07/24 10:26:07;;;;;;;7.22;5.30;;;29.10;73.60;;;;;;10131738;28;20123;-55
2022/07/24 10:30:58;;;;;;;8.63;5.38;;;29.40;73.00;;;;;;10128619;28;20029;-52
2022/07/24 10:35:50;;;;;;;6.78;4.78;;;29.20;72.80;;;;;;10132338;28;20013;-54
2022/07/24 10:40:51;;;;;;;7.30;5.32;;;29.20;72.00;;;;;;10129690;28;20024;-54
2022/07/24 10:45:54;;;;;;;5.30;4.68;;;29.30;71.20;;;;;;10131505;28;20045;-52
2022/07/24 10:50:57;;;;;;;7.53;5.55;;;29.30;70.50;;;;;;10132801;28;20082;-54
2022/07/24 10:55:48;;;;;;;6.03;5.35;;;29.40;69.80;;;;;;10131870;28;20391;-56
2022/07/24 11:00:44;;;;;;;7.00;5.43;;;29.60;69.50;;;;;;10133267;28;20423;-57
2022/07/24 11:06:03;;;;;;;5.35;4.85;;;29.70;69.00;;;;;;10136954;28;20335;-55
2022/07/24 11:10:54;;;;;;;6.82;4.50;;;29.70;68.50;;;;;;10132232;28;20908;-52
2022/07/24 11:16:10;;;;;;;5.32;4.68;;;29.70;68.40;;;;;;10128456;28;20031;-52
2022/07/24 11:21:01;;;;;;;6.57;4.35;;;29.80;67.60;;;;;;10137246;28;20040;-58
2022/07/24 11:26:35;;;;;;;5.60;3.92;;;30.10;66.90;;;;;;10138639;28;20108;-61
2022/07/24 11:31:26;;;;;;;5.13;4.15;;;30.20;65.30;;;;;;10138438;28;20024;-52
2022/07/24 11:36:17;;;;;;;6.35;4.80;;;30.40;65.30;;;;;;10138302;28;20111;-54
2022/07/24 11:41:08;;;;;;;6.53;4.47;;;30.30;65.10;;;;;;10138015;28;20029;-52
2022/07/24 11:45:59;;;;;;;5.18;4.18;;;30.30;64.90;;;;;;10138196;28;20048;-56
2022/07/24 11:50:49;;;;;;;6.35;4.50;;;30.30;64.60;;;;;;10134695;28;20072;-56
2022/07/24 11:55:40;;;;;;;6.72;5.25;;;30.50;64.10;;;;;;10137138;28;20515;-60
2022/07/24 12:00:31;;;;;;;6.68;5.18;;;30.80;63.50;;;;;;10136741;28;20033;-58
2022/07/24 12:05:37;;;;;;;6.65;4.43;;;30.90;63.20;;;;;;10134663;28;20471;-55
2022/07/24 12:10:31;;;;;;;6.05;4.10;;;31.00;62.60;;;;;;10136961;28;20070;-57
2022/07/24 12:15:24;;;;;;;7.95;4.65;;;31.00;62.60;;;;;;10135980;28;20485;-63
2022/07/24 12:20:15;;;;;;;;;;;31.30;62.20;;;;;;10137711;28;20036;-62
2022/07/24 12:25:06;;;;;;;5.35;4.60;;;31.60;61.80;;;;;;10136393;28;19912;-55
2022/07/24 12:29:57;;;;;;;6.90;4.90;;;32.20;62.10;;;;;;10137073;28;20574;-55
2022/07/24 12:34:48;;;;;;;5.38;4.53;;;32.50;61.90;;;;;;10129650;28;20039;-52
2022/07/24 12:39:47;;;;;;;5.57;4.72;;;32.80;61.80;;;;;;10136490;28;20110;-55
2022/07/24 12:44:45;;;;;;;5.85;4.63;;;33.30;61.20;;;;;;10136002;28;20407;-55
2022/07/24 12:49:44;;;;;;;5.57;4.40;;;33.60;60.90;;;;;;10133818;28;20621;-57
2022/07/24 12:54:36;;;;;;;5.13;4.00;;;33.70;60.30;;;;;;10135216;28;20032;-58
2022/07/24 12:59:28;;;;;;;4.47;4.07;;;34.10;60.20;;;;;;10135228;28;20100;-59
2022/07/24 13:04:21;;;;;;;4.60;4.15;;;35.00;59.10;;;;;;10134762;28;20036;-54
2022/07/24 13:09:13;;;;;;;5.07;3.47;;;35.80;57.50;;;;;;10131841;28;20148;-55
2022/07/24 13:14:06;;;;;;;5.10;3.70;;;36.60;55.80;;;;;;10131647;28;20021;-52
2022/07/24 13:18:57;;;;;;;4.13;3.72;;;36.70;54.40;;;;;;10127295;28;20062;-54
2022/07/24 13:23:47;;;;;;;4.40;4.00;;;37.30;53.00;;;;;;10133381;28;20115;-55
2022/07/24 13:28:38;;;;;;;4.38;3.60;;;37.70;51.10;;;;;;10133527;28;20162;-52
2022/07/24 13:33:29;;;;;;;5.07;4.10;;;38.20;50.00;;;;;;10133206;28;20125;-54
2022/07/24 13:38:19;;;;;;;4.22;3.92;;;38.70;48.60;;;;;;10133345;28;20033;-56
2022/07/24 13:43:10;;;;;;;4.70;4.30;;;39.40;47.50;;;;;;10132657;28;20029;-53
2022/07/24 13:48:01;;;;;;;4.57;4.28;;;40.40;46.30;;;;;;10132278;28;20340;-54
2022/07/24 13:52:51;;;;;;;4.60;3.95;;;41.10;45.50;;;;;;10132190;28;20035;-54
2022/07/24 13:57:42;;;;;;;4.10;3.58;;;41.40;44.70;;;;;;10127905;28;20035;-55
2022/07/24 14:02:32;;;;;;;5.10;3.85;;;42.00;44.00;;;;;;10132593;28;20067;-56
2022/07/24 14:07:23;;;;;;;4.10;3.80;;;41.90;43.40;;;;;;10128407;28;20032;-55
2022/07/24 14:12:14;;;;;;;4.25;3.85;;;42.20;43.00;;;;;;10131757;28;20077;-55
2022/07/24 14:17:04;;;;;;;4.25;3.85;;;42.40;42.40;;;;;;10129227;28;20537;-55
2022/07/24 14:21:55;;;;;;;5.95;4.32;;;42.80;41.90;;;;;;10132045;28;20067;-55
2022/07/24 14:26:47;;;;;;;4.03;3.67;;;42.80;41.50;;;;;;10131465;28;20077;-54
2022/07/24 14:31:38;;;;;;;4.18;3.85;;;43.10;40.80;;;;;;10118544;28;20072;-55
2022/07/24 14:36:29;;;;;;;4.80;4.30;;;43.10;40.40;;;;;;10134739;28;20763;-57
2022/07/24 14:41:20;;;;;;;6.15;3.80;;;43.40;39.90;;;;;;10131621;28;20033;-56
2022/07/24 14:46:15;;;;;;;4.25;3.85;;;43.50;39.40;;;;;;10136844;28;20053;-57
2022/07/24 14:51:05;;;;;;;4.25;3.85;;;42.70;39.40;;;;;;10138994;28;20017;-58
2022/07/24 14:55:56;;;;;;;4.15;3.75;;;42.10;39.40;;;;;;10126266;28;20022;-55
2022/07/24 15:00:48;;;;;;;4.15;3.78;;;42.00;39.30;;;;;;10139431;28;20025;-54
2022/07/24 15:05:39;;;;;;;4.88;4.18;;;42.50;38.80;;;;;;10135367;28;20032;-54
2022/07/24 15:10:29;;;;;;;4.03;3.63;;;42.10;38.80;;;;;;10138865;28;20029;-55
2022/07/24 15:15:20;;;;;;;4.15;3.70;;;42.40;38.40;;;;;;10139053;28;20013;-54
2022/07/24 15:20:11;;;;;;;4.10;3.80;;;42.10;38.50;;;;;;10138826;28;20471;-55
2022/07/24 15:25:02;;;;;;;4.75;4.05;;;42.40;38.20;;;;;;10135285;28;20054;-60
2022/07/24 15:29:52;;;;;;;4.15;3.85;;;42.60;37.90;;;;;;10139887;28;20051;-57
2022/07/24 15:34:43;;;;;;;3.95;3.65;;;42.30;37.80;;;;;;10139207;28;20017;-58
2022/07/24 15:39:34;;;;;;;4.60;4.20;;;42.10;37.90;;;;;;10138382;28;20028;-57
2022/07/24 15:44:24;;;;;;;4.60;4.13;;;42.20;37.80;;;;;;10135748;28;20086;-64
2022/07/24 15:49:15;;;;;;;4.63;4.25;;;42.80;37.30;;;;;;10137144;28;20047;-63
2022/07/24 15:54:06;;;;;;;3.95;3.65;;;43.40;37.40;;;;;;10137381;28;20286;-61
2022/07/24 15:58:57;;;;;;;4.03;3.63;;;42.40;37.30;;;;;;10137436;28;20064;-60
2022/07/24 16:03:47;;;;;;;4.68;4.28;;;42.90;37.20;;;;;;10133973;28;20025;-66
2022/07/24 16:08:38;;;;;;;3.83;3.42;;;42.60;37.00;;;;;;10132501;28;20112;-62
2022/07/24 16:13:29;;;;;;;3.83;3.53;;;42.70;36.90;;;;;;10136395;28;20028;-67
2022/07/24 16:18:21;;;;;;;4.18;3.88;;;44.10;36.10;;;;;;10130348;28;20033;-58
2022/07/24 16:23:11;;;;;;;4.25;3.85;;;45.60;35.20;;;;;;10136731;28;20033;-60
2022/07/24 16:28:02;;;;;;;4.15;3.80;;;45.80;34.80;;;;;;10136162;28;20398;-60
2022/07/24 16:32:53;;;;;;;4.72;4.32;;;46.80;34.60;;;;;;10138155;28;20040;-65
2022/07/24 16:37:44;;;;;;;4.28;3.85;;;47.60;34.60;;;;;;10138611;28;20551;-58
2022/07/24 16:42:34;;;;;;;4.47;4.10;;;48.00;33.50;;;;;;10135169;28;20028;-58
2022/07/24 16:47:25;;;;;;;3.88;3.58;;;48.20;33.20;;;;;;10126597;28;20414;-62
2022/07/24 16:52:16;;;;;;;4.15;3.75;;;48.50;32.80;;;;;;10134724;28;20032;-66
2022/07/24 16:57:07;;;;;;;4.60;4.20;;;48.10;32.80;;;;;;10135162;28;20028;-58
2022/07/24 17:01:58;;;;;;;4.68;4.28;;;48.10;32.50;;;;;;10124384;28;20033;-59
2022/07/24 17:06:48;;;;;;;4.53;4.00;;;48.00;32.20;;;;;;10129938;28;20119;-59
2022/07/24 17:11:39;;;;;;;5.43;4.93;;;48.20;32.20;;;;;;10132710;28;20056;-57
2022/07/24 17:16:30;;;;;;;4.43;4.00;;;48.10;31.90;;;;;;10133271;28;20099;-58
2022/07/24 17:21:20;;;;;;;4.20;3.80;;;48.60;31.70;;;;;;10133818;28;20201;-58
2022/07/24 17:26:11;;;;;;;5.07;4.60;;;48.80;31.60;;;;;;10133920;28;20117;-58
2022/07/24 17:31:02;;;;;;;4.75;4.35;;;48.70;31.40;;;;;;10128081;28;20407;-61
2022/07/24 17:35:53;;;;;;;4.40;4.00;;;46.90;31.80;;;;;;10126816;28;20274;-60
2022/07/24 17:40:44;;;;;;;4.95;4.53;;;44.60;33.50;;;;;;10134890;28;20402;-60
2022/07/24 17:45:34;;;;;;;3.67;3.38;;;45.20;32.70;;;;;;10130938;28;20136;-58
2022/07/24 17:50:25;;;;;;;5.93;4.75;;;45.10;32.90;;;;;;10134574;28;20032;-61
2022/07/24 17:55:16;;;;;;;4.90;4.25;;;42.90;33.80;;;;;;10133185;28;20017;-60
2022/07/24 18:00:10;;;;;;;5.83;3.77;;;40.50;35.50;;;;;;10130210;28;20044;-59
2022/07/24 18:05:01;;;;;;;5.50;5.00;;;38.90;36.70;;;;;;10132738;28;20036;-57
2022/07/24 18:09:52;;;;;;;8.63;4.53;;;37.70;37.50;;;;;;10127317;28;20431;-59
2022/07/24 18:14:42;;;;;;;5.47;4.78;;;37.00;38.00;;;;;;10129046;28;20020;-59
2022/07/24 18:19:33;;;;;;;8.20;5.32;;;36.50;38.50;;;;;;10132068;28;20020;-57
2022/07/24 18:24:24;;;;;;;5.72;5.00;;;36.30;38.70;;;;;;10127051;28;20041;-59
2022/07/24 18:29:15;;;;;;;5.85;4.50;;;36.00;39.10;;;;;;10125174;28;20196;-58
2022/07/24 18:34:05;;;;;;;7.25;5.47;;;35.70;39.50;;;;;;10123800;28;20028;-57
2022/07/24 18:38:56;;;;;;;4.70;4.25;;;35.50;39.90;;;;;;10129310;28;20031;-56
2022/07/24 18:43:47;;;;;;;9.90;7.05;;;35.30;40.20;;;;;;10129717;28;20636;-62
2022/07/24 18:48:41;;;;;;;7.80;5.47;;;35.10;40.60;;;;;;10131342;28;20048;-63
2022/07/24 18:53:32;;;;;;;8.43;4.97;;;34.90;40.90;;;;;;10124823;28;20025;-62
2022/07/24 18:58:23;;;;;;;6.93;4.93;;;34.70;41.10;;;;;;10131505;28;20028;-64
2022/07/24 19:03:14;;;;;;;5.32;4.70;;;34.50;41.50;;;;;;10130832;28;20336;-63
2022/07/24 19:08:06;;;;;;;4.90;4.40;;;34.50;41.80;;;;;;10117685;28;20390;-63
2022/07/24 19:12:56;;;;;;;5.63;4.28;;;34.30;42.00;;;;;;10131797;28;20032;-66
2022/07/24 19:17:47;;;;;;;7.22;4.85;;;34.20;42.20;;;;;;10128702;28;20021;-63
2022/07/24 19:22:38;;;;;;;7.55;4.88;;;33.90;42.60;;;;;;10133620;28;20036;-66
2022/07/24 19:27:29;;;;;;;7.03;4.75;;;33.80;43.00;;;;;;10138582;28;20584;-63
2022/07/24 19:32:21;;;;;;;6.80;4.85;;;33.50;43.70;;;;;;10140036;28;20032;-66
2022/07/24 19:37:12;;;;;;;5.57;5.03;;;33.40;44.20;;;;;;10134381;28;20016;-71
2022/07/24 19:42:02;;;;;;;6.18;4.53;;;33.20;44.40;;;;;;10140063;28;20040;-70
2022/07/24 19:46:53;;;;;;;5.20;4.45;;;33.10;44.80;;;;;;10140064;28;20050;-72
2022/07/24 19:51:44;;;;;;;6.72;4.82;;;33.00;44.80;;;;;;10136080;28;20028;-73
2022/07/24 19:56:34;;;;;;;6.43;4.72;;;32.90;45.20;;;;;;10141838;28;20025;-73
2022/07/24 20:01:25;;;;;;;6.88;5.15;;;32.90;45.50;;;;;;10150463;28;20028;-67
2022/07/24 20:06:16;;;;;;;6.72;4.80;;;32.90;45.70;;;;;;10138560;28;20054;-70
2022/07/24 20:11:07;;;;;;;7.90;5.25;;;32.70;46.60;;;;;;10137818;28;20032;-68
2022/07/24 20:15:58;;;;;;;8.23;5.10;;;32.60;46.10;;;;;;10138284;28;20371;-66
2022/07/24 20:20:49;;;;;;;11.55;5.50;;;32.60;46.50;;;;;;10137724;28;20020;-67
2022/07/24 20:25:40;;;;;;;12.10;5.93;;;32.50;46.70;;;;;;10138251;28;20036;-76
2022/07/24 20:30:30;;;;;;;7.28;5.18;;;32.40;46.90;;;;;;10135834;28;20403;-72
2022/07/24 20:35:21;;;;;;;7.18;4.43;;;32.50;47.40;;;;;;10124475;28;20141;-67
2022/07/24 20:40:13;;;;;;;7.07;4.50;;;32.40;47.50;;;;;;10135032;28;20032;-72
2022/07/24 20:45:05;;;;;;;6.53;5.55;;;32.20;47.90;;;;;;10135922;28;20033;-70
2022/07/24 20:49:56;;;;;;;7.00;4.95;;;32.10;48.10;;;;;;10135877;28;20056;-66
2022/07/24 20:54:47;;;;;;;6.22;3.90;;;32.00;48.20;;;;;;10137483;28;20024;-68
2022/07/24 20:59:37;;;;;;;7.65;4.45;;;31.80;48.20;;;;;;10133941;28;20388;-70
2022/07/24 21:04:29;;;;;;;6.53;4.45;;;31.60;48.40;;;;;;10141894;28;20039;-69
2022/07/24 21:09:19;;;;;;;7.80;5.43;;;31.70;48.50;;;;;;10136569;28;20119;-69
2022/07/24 21:14:10;;;;;;;7.80;5.32;;;31.70;48.70;;;;;;10126531;28;20131;-69
2022/07/24 21:19:01;;;;;;;5.50;4.75;;;31.70;48.80;;;;;;10131132;28;20545;-66
2022/07/24 21:23:51;;;;;;;7.70;5.47;;;31.60;49.10;;;;;;10134330;28;20474;-69
2022/07/24 21:28:42;;;;;;;9.55;5.78;;;31.50;49.20;;;;;;10134833;28;20025;-67
2022/07/24 21:33:33;;;;;;;8.20;5.05;;;31.50;49.60;;;;;;10132168;28;20021;-68
2022/07/24 21:38:26;;;;;;;6.72;4.90;;;31.40;49.70;;;;;;10134030;28;20020;-68
2022/07/24 21:43:17;;;;;;;7.05;5.03;;;31.40;50.00;;;;;;10127594;28;20038;-68
2022/07/24 21:48:08;;;;;;;5.53;4.57;;;31.50;50.20;;;;;;10133305;28;20048;-67
2022/07/24 21:52:58;;;;;;;7.63;4.97;;;31.40;50.50;;;;;;10132795;28;20165;-66
2022/07/24 21:57:49;;;;;;;7.15;5.22;;;31.30;50.70;;;;;;10127925;28;20518;-68
2022/07/24 22:02:40;;;;;;;7.32;5.55;;;31.10;50.70;;;;;;10133042;28;20502;-66
2022/07/24 22:07:31;;;;;;;8.18;4.88;;;31.00;51.10;;;;;;10129770;28;20036;-64
2022/07/24 22:12:21;;;;;;;7.50;5.10;;;30.90;51.10;;;;;;10133421;28;20119;-66
2022/07/24 22:17:12;;;;;;;8.57;5.50;;;30.90;51.10;;;;;;10132245;28;20060;-65
2022/07/24 22:22:03;;;;;;;6.13;5.15;;;31.00;51.20;;;;;;10132160;28;20124;-65
2022/07/24 22:26:53;;;;;;;7.35;5.43;;;30.90;51.30;;;;;;10130508;28;20021;-64
2022/07/24 22:31:44;;;;;;;7.45;5.85;;;30.80;51.50;;;;;;10130727;28;20194;-63
2022/07/24 22:36:39;;;;;;;7.88;5.68;;;30.70;51.70;;;;;;10133501;28;20036;-64
2022/07/24 22:41:30;;;;;;;7.28;4.93;;;30.70;52.00;;;;;;10122621;28;20162;-64
2022/07/24 22:46:21;;;;;;;6.55;4.93;;;30.40;52.70;;;;;;10132456;28;20154;-62
2022/07/24 22:51:12;;;;;;;6.72;5.55;;;30.20;53.00;;;;;;10130264;28;20021;-63
2022/07/24 22:56:04;;;;;;;7.15;5.03;;;30.00;53.20;;;;;;10132032;28;20535;-64
2022/07/24 23:00:54;;;;;;;5.43;4.60;;;29.80;53.80;;;;;;10138750;28;20487;-63
2022/07/24 23:05:46;;;;;;;4.78;4.05;;;29.80;53.80;;;;;;10134819;28;20028;-62
2022/07/24 23:10:37;;;;;;;5.00;4.43;;;29.80;53.90;;;;;;10135064;28;20083;-62
2022/07/24 23:15:28;;;;;;;5.70;4.25;;;29.90;54.10;;;;;;10138521;28;20090;-62
2022/07/24 23:20:19;;;;;;;6.03;4.88;;;29.60;54.10;;;;;;10134396;28;20100;-62
2022/07/24 23:25:11;;;;;;;6.40;5.03;;;29.60;54.20;;;;;;10139316;28;20048;-62
2022/07/24 23:30:03;;;;;;;9.00;4.88;;;29.70;54.30;;;;;;10140369;28;20074;-61
2022/07/24 23:34:53;;;;;;;9.40;4.82;;;29.80;54.30;;;;;;10139695;28;20040;-60
2022/07/24 23:39:45;;;;;;;7.78;4.32;;;29.60;54.60;;;;;;10138497;28;20024;-61
2022/07/24 23:44:36;;;;;;;7.95;4.45;;;29.50;54.60;;;;;;10138307;28;20025;-62
2022/07/24 23:49:28;;;;;;;5.53;4.32;;;29.60;54.90;;;;;;10131151;28;20040;-62
2022/07/24 23:54:18;;;;;;;8.25;4.97;;;29.70;54.90;;;;;;10138249;28;20031;-61
2022/07/24 23:59:09;;;;;;;5.20;4.50;;;29.70;54.90;;;;;;10138008;28;20115;-60
